Time;durP1;ratioP1;P1;durP2;ratioP2;P2;SDS_P1;SDS_P2;PMS_P1;PMS_P2;Temp;Humidity;BMP_temperature;BMP_pressure;BME280_temperature;BME280_humidity;BME280_pressure;Samples;Min_cycle;Max_cycle;Signal;HPM_P1;HPM_P2
2022/02/09 00:07:36;;;;;;;4.80;2.30;;;;;;;9.73;88.98;102581.91;5033498;28;20053;-49
2022/02/09 00:10:05;;;;;;;6.82;2.90;;;;;;;9.74;88.82;102582.75;5036438;28;20045;-48
2022/02/09 00:12:49;;;;;;;6.47;2.53;;;;;;;9.77;88.97;102585.06;5036885;28;20285;-48
2022/02/09 00:18:01;;;;;;;5.65;2.42;;;;;;;9.76;88.60;102581.47;5038772;28;20042;-50
2022/02/09 00:32:10;;;;;;;6.43;2.63;;;;;;;9.76;90.25;102578.75;5051085;28;20064;-51
2022/02/09 00:34:54;;;;;;;6.15;2.58;;;;;;;9.74;90.76;102572.72;5042620;28;20492;-51
2022/02/09 00:40:16;;;;;;;5.13;2.72;;;;;;;9.73;91.12;102568.31;5050605;28;20045;-51
2022/02/09 01:41:06;;;;;;;3.47;2.00;;;;;;;9.64;97.73;102553.28;4994059;28;20058;-49
2022/02/09 01:57:13;;;;;;;4.75;2.50;;;;;;;9.62;97.56;102539.09;5010669;28;20408;-50
2022/02/09 01:59:42;;;;;;;3.80;2.08;;;;;;;9.61;97.60;102526.53;5012473;28;20046;-53
2022/02/09 02:02:10;;;;;;;2.38;1.80;;;;;;;9.62;97.62;102533.66;5009810;28;20034;-50
2022/02/09 02:04:39;;;;;;;3.40;2.10;;;;;;;9.60;97.48;102530.31;4993668;28;20060;-48
2022/02/09 02:07:18;;;;;;;3.45;2.03;;;;;;;9.63;97.01;102524.41;4995009;28;20038;-49
2022/02/09 02:09:46;;;;;;;3.25;2.03;;;;;;;9.61;97.20;102521.06;4992940;28;20050;-53
2022/02/09 02:12:19;;;;;;;2.92;1.70;;;;;;;9.57;97.27;102523.41;5004885;28;20108;-50
2022/02/09 02:14:56;;;;;;;2.22;1.67;;;;;;;9.57;97.16;102511.69;5012362;28;20033;-49
2022/02/09 02:17:33;;;;;;;1.95;1.58;;;;;;;9.56;97.07;102518.19;5043148;28;20581;-51
2022/02/09 02:20:12;;;;;;;2.20;1.70;;;;;;;9.55;97.02;102516.53;5047201;28;20051;-47
2022/02/09 02:23:03;;;;;;;3.50;1.77;;;;;;;9.55;97.04;102514.63;5053700;28;20052;-50
2022/02/09 02:39:16;;;;;;;2.60;1.85;;;;;;;9.58;95.46;102510.63;5002733;28;20054;-49
2022/02/09 03:11:47;;;;;;;4.70;2.45;;;;;;;9.56;96.81;102480.09;5009725;28;20053;-52
2022/02/09 03:13:58;;;;;;;5.30;2.50;;;;;;;9.58;97.25;102477.97;5032936;28;20045;-53
2022/02/09 03:16:36;;;;;;;2.58;2.22;;;;;;;9.56;97.22;102472.75;5042244;28;20092;-53
2022/02/09 03:21:59;;;;;;;4.93;2.83;;;;;;;9.58;97.29;102478.81;5033447;28;20158;-50
2022/02/09 03:24:44;;;;;;;6.28;2.60;;;;;;;9.56;97.96;102486.34;5033406;28;20483;-50
2022/02/09 03:46:36;;;;;;;;;;;;;;;9.50;100.00;102462.78;5032690;28;20041;-51
2022/02/09 03:52:50;;;;;;;4.13;2.92;;;;;;;9.49;100.00;102457.53;5024744;28;20061;-50
2022/02/09 03:54:59;;;;;;;3.70;2.88;;;;;;;9.45;100.00;102456.31;5027936;28;20072;-50
2022/02/09 03:57:31;;;;;;;4.43;3.00;;;;;;;9.47;100.00;102454.19;5031538;28;20037;-49
2022/02/09 04:00:00;;;;;;;3.58;2.80;;;;;;;9.45;100.00;102457.13;5047311;28;20449;-53
2022/02/09 04:02:29;;;;;;;2.85;2.55;;;;;;;9.42;100.00;102448.59;5048330;28;20051;-50
2022/02/09 04:04:57;;;;;;;3.20;2.72;;;;;;;9.41;100.00;102449.66;5050093;28;20041;-49
2022/02/09 04:07:25;;;;;;;3.95;2.67;;;;;;;9.38;100.00;102451.75;5048574;28;20041;-51
2022/02/09 04:09:57;;;;;;;3.38;2.60;;;;;;;9.37;100.00;102450.06;5049556;28;20468;-50
2022/02/09 04:13:16;;;;;;;3.40;2.58;;;;;;;9.39;100.00;102456.13;5048130;28;20044;-52
2022/02/09 04:15:27;;;;;;;3.40;2.60;;;;;;;9.39;100.00;102452.59;5039827;28;20053;-51
2022/02/09 04:18:13;;;;;;;3.20;2.58;;;;;;;9.38;100.00;102443.59;5037540;28;20042;-52
2022/02/09 04:40:08;;;;;;;3.08;2.40;;;;;;;9.38;100.00;102448.22;5031198;28;20041;-49
2022/02/09 04:47:49;;;;;;;4.65;2.70;;;;;;;9.45;100.00;102439.97;5043596;28;20048;-49
2022/02/09 04:50:30;;;;;;;3.38;2.70;;;;;;;9.37;100.00;102439.19;5035919;28;20052;-49
2022/02/09 04:55:42;;;;;;;4.60;3.20;;;;;;;9.37;100.00;102444.63;5037246;28;20038;-49
2022/02/09 04:58:19;;;;;;;4.88;3.30;;;;;;;9.32;100.00;102447.19;5038709;28;20045;-50
2022/02/09 05:01:54;;;;;;;5.72;3.30;;;;;;;9.33;100.00;102451.59;5055264;28;20048;-54
2022/02/09 05:28:01;;;;;;;3.30;2.38;;;;;;;9.29;100.00;102439.47;5014054;28;20496;-46
2022/02/09 05:30:31;;;;;;;4.75;3.05;;;;;;;9.26;100.00;102442.63;5014109;28;20065;-50
2022/02/09 05:32:59;;;;;;;5.68;3.10;;;;;;;9.24;100.00;102444.75;5026941;28;20527;-49
2022/02/09 05:35:26;;;;;;;5.57;2.83;;;;;;;9.21;100.00;102439.72;5032166;28;20034;-50
2022/02/09 05:37:56;;;;;;;5.38;2.75;;;;;;;9.19;100.00;102450.00;5023173;28;20057;-50
2022/02/09 05:40:24;;;;;;;3.70;2.50;;;;;;;9.20;100.00;102439.94;5013208;28;20034;-50
2022/02/09 05:42:51;;;;;;;5.00;3.00;;;;;;;9.17;100.00;102443.94;5013081;28;20050;-50
2022/02/09 05:45:22;;;;;;;4.28;2.60;;;;;;;9.20;100.00;102434.50;5014097;28;20157;-50
2022/02/09 05:48:33;;;;;;;3.97;2.88;;;;;;;9.20;100.00;102442.66;5014159;28;20049;-47
2022/02/09 05:53:22;;;;;;;4.50;2.78;;;;;;;9.15;100.00;102440.59;5033969;28;20038;-50
2022/02/09 05:55:53;;;;;;;3.67;2.50;;;;;;;9.16;100.00;102431.38;5036019;28;20037;-49
2022/02/09 06:00:54;;;;;;;3.47;2.45;;;;;;;9.15;100.00;102418.84;5034481;28;20113;-50
2022/02/09 06:03:22;;;;;;;3.40;2.47;;;;;;;9.16;100.00;102431.38;5034105;28;20034;-53
2022/02/09 06:05:49;;;;;;;4.13;2.30;;;;;;;9.13;100.00;102427.22;5034453;28;20037;-51
2022/02/09 06:08:17;;;;;;;4.32;2.20;;;;;;;9.12;100.00;102424.72;5034261;28;20037;-52
2022/02/09 06:10:52;;;;;;;4.38;2.40;;;;;;;9.17;100.00;102428.44;5034224;28;20045;-51
2022/02/09 06:13:27;;;;;;;3.20;2.17;;;;;;;9.20;100.00;102429.91;5034216;28;20385;-51
2022/02/09 06:21:38;;;;;;;3.03;2.17;;;;;;;9.18;100.00;102429.28;5035992;28;20045;-49
2022/02/09 06:24:05;;;;;;;3.92;2.28;;;;;;;9.13;100.00;102434.53;5043313;28;20056;-51
2022/02/09 06:26:33;;;;;;;4.65;2.45;;;;;;;9.12;100.00;102428.28;5052035;28;20041;-51
2022/02/09 06:29:01;;;;;;;3.10;2.35;;;;;;;9.11;100.00;102432.03;5050543;28;20068;-51
2022/02/09 06:31:31;;;;;;;5.30;2.80;;;;;;;9.10;100.00;102426.84;5049211;28;20105;-50
2022/02/09 06:33:59;;;;;;;6.03;2.63;;;;;;;9.08;100.00;102439.81;5044188;28;20046;-53
2022/02/09 06:36:27;;;;;;;2.90;2.28;;;;;;;9.07;100.00;102446.31;5016212;28;20050;-52
2022/02/09 06:39:03;;;;;;;3.88;2.38;;;;;;;9.07;100.00;102446.31;5037418;28;20454;-50
2022/02/09 06:41:31;;;;;;;3.80;2.33;;;;;;;9.08;100.00;102446.06;5048416;28;20490;-47
2022/02/09 06:43:58;;;;;;;3.05;2.47;;;;;;;9.06;100.00;102442.72;5017988;28;20092;-50
2022/02/09 06:46:26;;;;;;;3.45;2.50;;;;;;;9.07;100.00;102449.03;5051520;28;20439;-50
2022/02/09 06:48:54;;;;;;;4.45;3.00;;;;;;;9.02;100.00;102449.69;5037743;28;20049;-50
2022/02/09 06:51:26;;;;;;;6.10;3.15;;;;;;;8.96;100.00;102456.81;5033323;28;20049;-49
2022/02/09 06:59:30;;;;;;;5.57;3.15;;;;;;;8.95;100.00;102451.59;5031285;28;20152;-49
2022/02/09 07:02:02;;;;;;;4.82;2.85;;;;;;;8.97;100.00;102449.47;5042076;28;20045;-49
2022/02/09 07:04:30;;;;;;;5.85;3.00;;;;;;;8.98;100.00;102445.72;5050199;28;20060;-48
2022/02/09 07:06:57;;;;;;;5.25;3.20;;;;;;;8.99;100.00;102439.22;5034255;28;20056;-52
2022/02/09 07:09:27;;;;;;;4.93;2.90;;;;;;;9.02;100.00;102435.22;5050657;28;20053;-53
2022/02/09 07:11:55;;;;;;;6.28;2.92;;;;;;;9.06;100.00;102420.97;5048982;28;20041;-52
2022/02/09 07:14:26;;;;;;;5.20;3.65;;;;;;;9.08;100.00;102431.66;5048538;28;20079;-48
2022/02/09 07:16:56;;;;;;;5.07;3.40;;;;;;;9.02;100.00;102435.22;5043935;28;20412;-49
2022/02/09 07:19:26;;;;;;;5.40;3.53;;;;;;;9.01;100.00;102434.41;5030862;28;20056;-51
2022/02/09 07:21:54;;;;;;;4.93;3.17;;;;;;;9.06;100.00;102433.75;5039726;28;20044;-49
2022/02/09 07:24:22;;;;;;;5.35;3.35;;;;;;;9.15;100.00;102421.56;5047147;28;20045;-47
2022/02/09 07:27:11;;;;;;;7.88;3.70;;;;;;;9.12;100.00;102430.16;5048513;28;20129;-54
2022/02/09 07:29:37;;;;;;;6.45;3.83;;;;;;;9.17;100.00;102430.34;5046205;28;20045;-48
2022/02/09 07:32:05;;;;;;;3.33;2.28;;;;;;;9.27;100.00;102427.97;5030611;28;20088;-49
2022/02/09 07:34:33;;;;;;;7.47;3.65;;;;;;;9.25;100.00;102434.69;5032676;28;20045;-51
2022/02/09 07:37:03;;;;;;;3.88;3.25;;;;;;;9.25;100.00;102430.06;5032797;28;20037;-50
2022/02/09 07:39:33;;;;;;;5.10;2.08;;;;;;;9.57;100.00;102430.03;5032086;28;20563;-51
2022/02/09 07:42:09;;;;;;;6.97;4.32;;;;;;;9.37;100.00;102432.91;5032771;28;20045;-52
2022/02/09 07:44:57;;;;;;;4.32;2.50;;;;;;;9.30;100.00;102432.97;5031777;28;20041;-50
2022/02/09 07:52:51;;;;;;;8.43;4.60;;;;;;;9.41;100.00;102433.34;5032201;28;20034;-52
2022/02/09 07:55:19;;;;;;;6.20;4.20;;;;;;;9.29;100.00;102433.19;5031871;28;20038;-50
2022/02/09 07:57:49;;;;;;;7.60;4.60;;;;;;;9.19;100.00;102430.97;5031199;28;20042;-48
2022/02/09 08:00:16;;;;;;;8.65;5.03;;;;;;;9.24;100.00;102428.41;5032073;28;20042;-49
2022/02/09 08:02:46;;;;;;;7.55;4.50;;;;;;;9.26;100.00;102434.47;5031845;28;20092;-48
2022/02/09 08:05:14;;;;;;;6.55;4.47;;;;;;;9.18;100.00;102429.28;5041733;28;20033;-50
2022/02/09 08:07:42;;;;;;;7.25;4.57;;;;;;;9.14;100.00;102419.91;5050125;28;20116;-52
2022/02/09 08:10:18;;;;;;;8.90;4.40;;;;;;;9.12;100.00;102424.72;5051559;28;20060;-52
2022/02/09 08:29:27;;;;;;;7.88;4.53;;;;;;;9.45;100.00;102424.47;5037550;28;20048;-54
2022/02/09 08:34:29;;;;;;;6.13;4.03;;;;;;;9.25;100.00;102421.09;5036121;28;20042;-51
2022/02/09 08:36:57;;;;;;;10.02;5.07;;;;;;;9.21;100.00;102428.84;5037002;28;20149;-53
2022/02/09 08:39:25;;;;;;;6.97;4.15;;;;;;;9.19;100.00;102436.41;5036388;28;20384;-51
2022/02/09 08:41:53;;;;;;;7.47;4.10;;;;;;;9.24;100.00;102427.59;5036094;28;20096;-52
2022/02/09 08:44:21;;;;;;;8.30;4.80;;;;;;;9.35;100.00;102435.84;5035906;28;20041;-45
2022/02/09 08:46:49;;;;;;;7.32;5.00;;;;;;;9.47;100.00;102435.16;5035791;28;20634;-52
2022/02/09 08:49:17;;;;;;;9.10;5.00;;;;;;;9.32;100.00;102441.75;5037237;28;20041;-50
2022/02/09 08:51:44;;;;;;;12.15;5.88;;;;;;;9.36;100.00;102418.50;5036039;28;20057;-53
2022/02/09 08:54:13;;;;;;;13.82;5.70;;;;;;;9.32;100.00;102422.69;5035776;28;20380;-51
2022/02/09 08:56:40;;;;;;;8.20;5.10;;;;;;;9.45;100.00;102418.22;5036803;28;20041;-50
2022/02/09 08:59:08;;;;;;;12.35;6.32;;;;;;;9.33;100.00;102424.38;5037672;28;20063;-52
2022/02/09 09:01:44;;;;;;;9.07;5.00;;;;;;;9.24;100.00;102414.00;5035681;28;20071;-52
2022/02/09 09:04:21;;;;;;;11.25;5.43;;;;;;;9.32;100.00;102414.53;5036588;28;20059;-52
2022/02/09 09:06:57;;;;;;;12.52;5.20;;;;;;;9.56;100.00;102409.34;5035433;28;20060;-53
2022/02/09 09:09:41;;;;;;;8.50;5.17;;;;;;;9.55;100.00;102411.22;5040953;28;20033;-49
2022/02/09 09:18:27;;;;;;;11.02;5.50;;;;;;;9.46;99.78;102401.69;5032566;28;20473;-50
2022/02/09 10:33:08;;;;;;;9.70;5.15;;;;;;;9.28;99.31;102443.22;5017806;28;20057;-48
2022/02/09 10:35:41;;;;;;;9.45;5.10;;;;;;;9.30;99.19;102438.41;5051127;28;20045;-49
2022/02/09 10:38:23;;;;;;;7.80;4.88;;;;;;;9.31;98.48;102440.09;5049157;28;20057;-48
2022/02/09 10:40:54;;;;;;;8.57;4.43;;;;;;;9.26;98.42;102447.22;5034033;28;20451;-51
2022/02/09 10:43:32;;;;;;;7.43;4.63;;;;;;;9.23;98.13;102451.22;5034448;28;20044;-50
2022/02/09 10:46:16;;;;;;;5.95;4.20;;;;;;;9.21;98.27;102447.88;5033938;28;20128;-52
2022/02/09 10:48:51;;;;;;;9.18;4.80;;;;;;;9.33;98.15;102453.44;5033751;28;20049;-50
2022/02/09 10:51:45;;;;;;;9.90;4.57;;;;;;;9.28;97.59;102445.94;5033917;28;20072;-52
2022/02/09 10:54:18;;;;;;;10.27;4.75;;;;;;;9.28;97.99;102461.44;5035059;28;20064;-48
2022/02/09 10:56:51;;;;;;;7.25;4.50;;;;;;;9.23;98.44;102453.09;5033603;28;20041;-49
2022/02/09 10:59:24;;;;;;;7.57;4.50;;;;;;;9.18;99.28;102460.03;5033585;28;20037;-51
2022/02/09 11:01:53;;;;;;;7.78;4.20;;;;;;;9.06;100.00;102455.50;5033377;28;20052;-50
2022/02/09 11:04:21;;;;;;;7.90;4.50;;;;;;;9.01;100.00;102455.31;5034270;28;20034;-50
2022/02/09 11:06:49;;;;;;;7.18;4.43;;;;;;;9.00;100.00;102453.66;5033280;28;20048;-54
2022/02/09 11:09:27;;;;;;;8.25;4.82;;;;;;;9.07;100.00;102451.75;5052798;28;20053;-49
2022/02/09 11:11:55;;;;;;;9.07;4.70;;;;;;;9.07;100.00;102449.03;5053452;28;20045;-50
2022/02/09 11:14:25;;;;;;;10.95;4.50;;;;;;;9.09;100.00;102446.91;5036415;28;20087;-52
2022/02/09 11:16:55;;;;;;;9.73;4.90;;;;;;;9.12;100.00;102443.78;5033208;28;20048;-47
2022/02/09 11:19:35;;;;;;;8.13;4.90;;;;;;;9.14;100.00;102452.53;5037016;28;20396;-51
2022/02/09 11:22:09;;;;;;;9.65;4.70;;;;;;;9.14;100.00;102457.97;5048950;28;20048;-51
2022/02/09 11:24:47;;;;;;;8.70;4.70;;;;;;;9.12;100.00;102452.75;5052232;28;20116;-49
2022/02/09 11:27:33;;;;;;;8.25;5.00;;;;;;;9.14;100.00;102444.38;5050666;28;20087;-47
2022/02/09 11:30:14;;;;;;;11.07;5.47;;;;;;;9.18;100.00;102443.72;5052923;28;20127;-50
2022/02/09 11:33:18;;;;;;;9.13;5.28;;;;;;;9.24;100.00;102433.03;5052652;28;20446;-50
2022/02/09 11:36:25;;;;;;;9.65;5.43;;;;;;;9.28;100.00;102432.34;5051128;28;20049;-53
2022/02/09 11:38:58;;;;;;;17.10;8.18;;;;;;;9.37;100.00;102439.19;5050500;28;20148;-52
2022/02/09 11:41:37;;;;;;;9.98;5.05;;;;;;;9.39;100.00;102425.38;5052920;28;20450;-49
2022/02/09 11:44:18;;;;;;;11.90;6.13;;;;;;;9.39;100.00;102436.25;4347569;28;9999993;-53
2022/02/09 11:47:11;;;;;;;31.27;12.73;;;;;;;9.45;100.00;102429.09;5032326;28;20049;-53
2022/02/09 12:09:13;;;;;;;14.02;5.75;;;;;;;9.78;99.44;102410.59;4970484;28;20567;-50
2022/02/09 12:12:05;;;;;;;14.80;7.82;;;;;;;9.80;100.00;102400.31;4969624;28;20055;-50
2022/02/09 12:15:12;;;;;;;16.35;8.15;;;;;;;10.00;100.00;102396.56;4970357;28;20046;-50
2022/02/09 12:25:49;;;;;;;8.43;4.63;;;;;;;9.71;97.82;102395.38;4970636;28;20515;-51
2022/02/09 12:28:20;;;;;;;10.40;5.60;;;;;;;9.70;98.03;102389.13;4980648;28;20469;-51
2022/02/09 12:30:48;;;;;;;8.70;4.93;;;;;;;9.81;98.39;102390.25;5005758;28;20511;-51
2022/02/09 12:33:24;;;;;;;9.00;4.53;;;;;;;9.84;97.88;102388.97;4991579;28;20081;-51
2022/02/09 12:35:52;;;;;;;9.10;4.70;;;;;;;9.76;97.49;102392.81;5010443;28;20038;-53
2022/02/09 12:38:29;;;;;;;8.85;4.78;;;;;;;9.70;97.15;102383.69;5048175;28;20107;-53
2022/02/09 12:41:16;;;;;;;8.73;4.65;;;;;;;9.71;97.39;102388.06;5050748;28;20376;-52
2022/02/09 12:43:53;;;;;;;9.02;4.40;;;;;;;9.69;96.70;102387.47;5044443;28;20115;-51
2022/02/09 12:46:44;;;;;;;9.02;4.82;;;;;;;9.67;97.20;102377.84;5031607;28;20069;-51
2022/02/09 12:49:17;;;;;;;12.75;6.25;;;;;;;9.67;96.64;102384.13;5031692;28;20148;-48
2022/02/09 12:51:47;;;;;;;11.00;5.63;;;;;;;9.68;97.29;102383.06;5033617;28;20431;-49
2022/02/09 12:54:17;;;;;;;9.07;4.68;;;;;;;9.68;96.88;102374.91;5050264;28;20049;-51
2022/02/09 12:56:48;;;;;;;9.57;4.72;;;;;;;9.66;96.44;102371.56;5044409;28;20041;-51
2022/02/09 12:59:21;;;;;;;8.43;4.80;;;;;;;9.66;96.74;102374.28;5040520;28;20052;-50
2022/02/09 13:01:51;;;;;;;10.77;5.32;;;;;;;9.66;97.01;102374.28;5030598;28;20048;-49
2022/02/09 13:04:38;;;;;;;8.57;4.75;;;;;;;9.68;96.93;102376.78;5029800;28;20041;-50
2022/02/09 13:07:18;;;;;;;9.20;4.97;;;;;;;9.70;97.58;102367.34;5033520;28;20033;-52
2022/02/09 13:09:52;;;;;;;8.88;4.68;;;;;;;9.69;97.54;102371.13;5038821;28;20044;-50
2022/02/09 13:12:27;;;;;;;7.72;4.63;;;;;;;9.71;97.42;102373.63;5050587;28;20052;-50
2022/02/09 13:15:06;;;;;;;10.13;5.07;;;;;;;9.71;97.42;102362.72;5053789;28;20519;-52
2022/02/09 13:18:08;;;;;;;8.20;4.47;;;;;;;9.76;96.97;102363.72;5052034;28;20044;-51
2022/02/09 14:07:48;;;;;;;11.63;5.90;;;;;;;9.82;95.47;102351.94;2017462;23;20058;-46
2022/02/09 14:13:09;;;;;;;10.77;6.10;;;;;;;9.88;94.89;102346.66;4995350;28;20047;-46
2022/02/09 14:16:11;;;;;;;10.40;5.22;;;;;;;9.87;94.50;102347.72;4994974;28;20093;-47
2022/02/09 14:56:22;;;;;;;10.40;5.30;;;;;;;9.87;93.86;102340.38;4974880;28;19933;-46
2022/02/09 14:58:59;;;;;;;9.02;5.20;;;;;;;9.86;93.96;102343.31;4975052;28;20054;-46
2022/02/09 15:01:38;;;;;;;8.88;4.93;;;;;;;9.88;94.25;102352.09;4976270;28;20520;-48
2022/02/09 15:04:32;;;;;;;9.00;5.45;;;;;;;9.89;94.03;102348.31;4975646;28;20086;-47
2022/02/09 15:07:48;;;;;;;10.32;5.53;;;;;;;9.88;94.01;102346.66;4955510;29;20047;-44
2022/02/09 15:12:56;;;;;;;16.25;7.68;;;;;;;9.88;94.35;102352.09;4928157;29;20058;-43
2022/02/09 15:15:57;;;;;;;10.38;5.40;;;;;;;9.89;93.99;102354.59;4593123;28;10000233;-44
2022/02/09 15:23:41;;;;;;;11.25;5.38;;;;;;;9.88;94.17;102352.09;4954972;29;20083;-45
2022/02/09 15:26:09;;;;;;;8.80;4.75;;;;;;;9.92;94.35;102354.13;4953273;29;20079;-49
2022/02/09 15:28:37;;;;;;;11.88;6.03;;;;;;;9.95;94.09;102353.69;4955185;28;20134;-47
2022/02/09 15:34:15;;;;;;;9.63;5.35;;;;;;;9.95;93.65;102352.84;4920617;29;20101;-42
2022/02/09 15:57:03;;;;;;;10.32;5.80;;;;;;;9.95;93.71;102336.50;4963690;28;20497;-48
2022/02/09 16:09:10;;;;;;;14.02;6.65;;;;;;;9.87;94.23;102334.94;4648653;28;10000111;-47
2022/02/09 16:21:51;;;;;;;9.85;6.38;;;;;;;9.91;93.92;102321.69;5009510;28;20064;-46
2022/02/09 16:24:31;;;;;;;12.23;6.32;;;;;;;9.91;94.02;102318.97;5009769;28;20054;-48
2022/02/09 16:46:17;;;;;;;11.13;7.38;;;;;;;9.92;94.97;102312.47;5013720;28;20172;-46
2022/02/09 16:49:13;;;;;;;12.70;7.38;;;;;;;9.91;94.57;102318.97;5012728;28;20103;-42
2022/02/09 16:51:51;;;;;;;11.68;7.93;;;;;;;9.88;94.68;102308.53;4995338;28;20081;-47
2022/02/09 16:54:40;;;;;;;18.65;8.60;;;;;;;9.87;94.91;102312.31;4992526;28;20064;-48
2022/02/09 17:19:02;;;;;;;15.57;9.10;;;;;;;9.93;94.61;102311.41;4993102;28;20051;-47
2022/02/09 17:21:31;;;;;;;13.40;8.25;;;;;;;9.92;94.60;102316.00;4991749;28;20104;-45
2022/02/09 17:24:02;;;;;;;12.27;8.32;;;;;;;9.92;94.43;102312.47;4993385;28;20043;-45
2022/02/09 17:26:31;;;;;;;13.90;9.13;;;;;;;9.91;94.44;102318.97;4993279;28;20046;-49
2022/02/09 17:29:01;;;;;;;11.73;8.32;;;;;;;9.90;94.59;102311.84;4991681;28;20129;-48
2022/02/09 17:31:44;;;;;;;13.00;8.73;;;;;;;9.90;94.55;102318.13;4992950;28;20078;-48
2022/02/09 17:55:57;;;;;;;15.02;9.30;;;;;;;9.90;94.83;102309.97;4973352;28;20047;-49
2022/02/09 17:58:32;;;;;;;16.27;8.57;;;;;;;9.89;94.72;102307.47;4973190;28;20050;-46
2022/02/09 18:01:01;;;;;;;14.45;8.68;;;;;;;9.90;94.77;102306.41;4955942;28;20062;-44
2022/02/09 18:03:29;;;;;;;14.48;7.38;;;;;;;9.92;94.68;102304.31;4954643;28;20106;-47
2022/02/09 18:06:09;;;;;;;12.25;7.93;;;;;;;9.92;94.64;102304.31;4973544;28;20049;-50
2022/02/09 18:08:56;;;;;;;14.00;8.38;;;;;;;9.93;94.38;102309.53;4957656;28;20055;-45
2022/02/09 18:30:46;;;;;;;13.60;8.90;;;;;;;9.95;93.53;102282.06;4957705;28;20066;-48
2022/02/09 18:39:28;;;;;;;13.55;6.18;;;;;;;10.09;95.21;102275.38;4935198;29;20138;-49
2022/02/09 18:44:37;;;;;;;12.60;8.95;;;;;;;10.16;93.67;102273.41;4957762;28;20054;-47
2022/02/09 19:03:55;;;;;;;14.57;10.55;;;;;;;10.05;93.52;102257.84;4991103;28;20054;-49
2022/02/09 19:07:15;;;;;;;15.07;10.90;;;;;;;10.04;93.68;102256.19;4991114;28;20060;-49
2022/02/09 19:15:33;;;;;;;15.52;11.15;;;;;;;10.05;93.89;102249.66;4976485;28;19925;-47
2022/02/09 19:31:08;;;;;;;13.75;9.85;;;;;;;10.05;93.45;102238.78;4991011;28;19969;-47
2022/02/09 19:47:46;;;;;;;16.17;12.18;;;;;;;10.02;93.56;102247.41;4976397;28;20062;-48
2022/02/09 19:50:47;;;;;;;18.33;12.80;;;;;;;10.00;93.75;102235.91;4974546;28;20046;-48
2022/02/09 19:56:08;;;;;;;16.50;11.50;;;;;;;10.01;93.93;102232.97;4990876;28;20046;-50
2022/02/09 19:58:45;;;;;;;13.70;10.52;;;;;;;10.01;94.36;102232.16;4991055;28;20113;-49
2022/02/09 20:01:17;;;;;;;15.33;11.87;;;;;;;10.01;94.03;102226.69;4974453;28;20092;-51
2022/02/09 20:03:46;;;;;;;12.63;9.75;;;;;;;10.02;94.59;102223.72;4990492;28;20066;-47
2022/02/09 20:06:14;;;;;;;13.68;10.45;;;;;;;10.08;95.71;102218.41;4973116;28;20062;-51
2022/02/09 20:08:42;;;;;;;17.15;13.15;;;;;;;10.07;95.11;102220.31;4990502;28;20059;-48
2022/02/09 20:11:15;;;;;;;11.57;9.55;;;;;;;10.08;95.30;102215.69;4973404;28;20050;-47
2022/02/09 20:13:44;;;;;;;12.25;10.05;;;;;;;10.07;94.99;102220.31;4990533;28;20058;-47
2022/02/09 20:16:11;;;;;;;14.63;12.15;;;;;;;10.05;95.13;102221.59;4974532;28;20085;-48
2022/02/09 20:18:39;;;;;;;15.60;11.95;;;;;;;10.05;94.69;102221.59;4977360;28;20047;-48
2022/02/09 20:21:07;;;;;;;16.70;13.68;;;;;;;10.02;94.47;102217.47;4994009;28;20042;-48
2022/02/09 20:23:35;;;;;;;16.17;13.82;;;;;;;10.01;94.26;102215.81;4977280;28;20054;-48
2022/02/09 20:26:08;;;;;;;14.55;11.68;;;;;;;10.01;94.48;102221.25;4994310;28;20042;-46
2022/02/09 20:28:40;;;;;;;15.70;12.93;;;;;;;10.01;94.28;102226.69;4994148;28;20127;-48
2022/02/09 20:31:13;;;;;;;23.42;16.52;;;;;;;10.01;94.00;102226.69;4977370;28;20042;-48
2022/02/09 20:33:46;;;;;;;19.60;15.75;;;;;;;10.01;94.01;102226.69;4994179;28;20057;-48
2022/02/09 20:36:17;;;;;;;17.92;14.18;;;;;;;10.01;93.69;102215.81;4994141;28;20050;-47
2022/02/09 20:38:50;;;;;;;18.05;15.25;;;;;;;10.00;93.67;102219.56;4961855;28;20162;-47
2022/02/09 20:41:20;;;;;;;17.40;14.32;;;;;;;10.01;93.56;102229.41;4992772;28;20052;-47
2022/02/09 20:44:02;;;;;;;20.05;15.38;;;;;;;10.00;93.39;102225.84;4993886;28;20050;-49
2022/02/09 20:46:32;;;;;;;21.33;15.93;;;;;;;10.00;93.27;102222.28;4993599;28;20046;-49
2022/02/09 20:49:04;;;;;;;20.42;15.90;;;;;;;10.00;93.25;102225.03;4994362;28;20042;-49
2022/02/09 20:51:33;;;;;;;18.63;15.10;;;;;;;10.00;93.16;102220.41;4976227;28;20050;-45
2022/02/09 20:54:01;;;;;;;22.58;16.38;;;;;;;10.00;93.22;102220.41;4993506;28;20058;-48
2022/02/09 20:56:29;;;;;;;20.42;16.20;;;;;;;10.01;93.44;102218.53;4976200;28;20038;-48
2022/02/09 20:59:02;;;;;;;20.00;16.02;;;;;;;10.01;93.25;102215.81;4993755;28;20061;-46
2022/02/09 21:01:38;;;;;;;19.50;14.63;;;;;;;10.01;93.55;102221.25;4993793;28;20054;-48
2022/02/09 21:04:13;;;;;;;20.98;13.98;;;;;;;10.00;93.51;102212.22;4962489;28;20125;-47
2022/02/09 21:07:01;;;;;;;21.52;16.83;;;;;;;10.00;93.19;102203.22;4976891;28;20140;-47
2022/02/09 21:12:40;;;;;;;22.85;17.10;;;;;;;10.00;93.33;102200.50;4993537;28;20078;-49
2022/02/09 21:23:14;;;;;;;21.98;18.65;;;;;;;9.91;93.75;102205.47;4993238;28;20109;-50
2022/02/09 21:31:42;;;;;;;18.60;14.07;;;;;;;9.99;93.52;102187.97;4974032;28;20046;-48
2022/02/09 21:45:10;;;;;;;18.95;12.27;;;;;;;10.03;92.76;102178.28;4992740;28;20064;-45
2022/02/09 21:55:54;;;;;;;17.23;11.82;;;;;;;10.02;93.28;102172.00;4992653;28;20042;-47
2022/02/09 22:20:09;;;;;;;12.95;10.98;;;;;;;9.96;92.44;102151.16;4992151;28;20046;-48
2022/02/09 22:22:42;;;;;;;16.40;11.27;;;;;;;9.95;92.42;102146.75;4992263;28;20043;-51
2022/02/09 22:28:41;;;;;;;15.43;10.35;;;;;;;9.94;92.19;102142.38;4912705;29;20054;-48
2022/02/09 22:55:42;;;;;;;13.88;9.20;;;;;;;9.89;92.13;102127.81;4995115;28;20112;-46
2022/02/09 22:58:13;;;;;;;11.80;8.48;;;;;;;9.88;92.00;102131.56;4994943;28;20420;-47
2022/02/09 23:03:35;;;;;;;13.43;9.10;;;;;;;9.89;92.06;102120.47;4977191;28;20042;-47
2022/02/09 23:13:52;;;;;;;10.73;7.00;;;;;;;9.92;92.01;102109.09;4994080;28;20046;-46
2022/02/09 23:16:50;;;;;;;11.45;7.10;;;;;;;9.95;91.67;102096.91;4994362;28;20046;-46
2022/02/09 23:57:47;;;;;;;12.07;6.63;;;;;;;9.89;90.10;102059.75;4993500;28;20042;-46
